Time;durP1;ratioP1;P1;durP2;ratioP2;P2;SDS_P1;SDS_P2;PMS_P1;PMS_P2;Temp;Humidity;BMP_temperature;BMP_pressure;BME280_temperature;BME280_humidity;BME280_pressure;Samples;Min_cycle;Max_cycle;Signal;HPM_P1;HPM_P2
2021/03/13 00:01:39;;;;;;;1.20;1.00;;;6.30;98.00;;;;;;5070799;28;20468;-73
2021/03/13 00:04:05;;;;;;;1.20;0.90;;;6.20;98.00;;;;;;5068994;28;20818;-73
2021/03/13 00:06:31;;;;;;;1.20;1.00;;;6.00;98.00;;;;;;5070557;28;20463;-73
2021/03/13 00:08:58;;;;;;;1.20;0.90;;;6.00;98.00;;;;;;5068797;28;20976;-70
2021/03/13 00:11:25;;;;;;;1.20;0.90;;;6.00;98.00;;;;;;5070756;28;20456;-71
2021/03/13 00:13:55;;;;;;;1.20;1.00;;;6.00;98.00;;;;;;5069313;28;20947;-71
2021/03/13 00:16:22;;;;;;;1.50;1.13;;;6.00;98.00;;;;;;5069817;28;20452;-71
2021/03/13 00:18:49;;;;;;;1.20;0.90;;;6.00;98.00;;;;;;5068844;28;21009;-73
2021/03/13 00:21:16;;;;;;;1.20;1.00;;;5.90;98.00;;;;;;5069239;28;21013;-73
2021/03/13 00:23:43;;;;;;;1.20;0.90;;;5.90;98.00;;;;;;5068423;28;20815;-73
2021/03/13 00:26:09;;;;;;;1.20;0.90;;;5.90;98.00;;;;;;5070586;28;20507;-71
2021/03/13 00:28:37;;;;;;;1.20;0.90;;;6.00;98.00;;;;;;5068595;28;20455;-70
2021/03/13 00:31:04;;;;;;;1.40;1.20;;;6.20;98.00;;;;;;5070620;28;20969;-70
2021/03/13 00:33:36;;;;;;;1.20;0.90;;;6.30;98.00;;;;;;5068499;28;20455;-70
2021/03/13 00:36:04;;;;;;;1.20;0.90;;;6.40;98.00;;;;;;5070547;28;20464;-72
2021/03/13 00:38:31;;;;;;;1.20;1.00;;;6.50;98.00;;;;;;5068719;28;20491;-73
2021/03/13 00:40:58;;;;;;;1.20;1.00;;;6.50;98.00;;;;;;5070693;28;20462;-73
2021/03/13 00:43:27;;;;;;;1.20;0.90;;;6.50;98.00;;;;;;5068559;28;20640;-73
2021/03/13 00:45:54;;;;;;;1.20;1.00;;;6.50;98.00;;;;;;5070251;28;20890;-73
2021/03/13 00:48:21;;;;;;;1.40;1.20;;;6.50;98.00;;;;;;5068634;28;20456;-73
2021/03/13 00:50:49;;;;;;;1.20;0.90;;;6.50;98.00;;;;;;5070526;28;20883;-73
2021/03/13 00:53:16;;;;;;;1.20;0.90;;;6.60;98.00;;;;;;5068728;28;20461;-73
2021/03/13 00:55:42;;;;;;;1.20;1.00;;;6.70;98.00;;;;;;5070333;28;20502;-73
2021/03/13 00:58:10;;;;;;;1.20;0.93;;;6.70;98.00;;;;;;5068302;28;20519;-73
2021/03/13 01:00:37;;;;;;;1.20;0.90;;;6.70;98.00;;;;;;5069070;28;20450;-73
2021/03/13 01:03:04;;;;;;;1.20;1.00;;;6.80;98.00;;;;;;5068977;28;20506;-73
2021/03/13 01:05:32;;;;;;;1.20;0.90;;;6.70;98.00;;;;;;5073994;28;20499;-73
2021/03/13 01:08:00;;;;;;;1.20;1.00;;;6.80;98.00;;;;;;5072178;28;20961;-73
2021/03/13 01:10:31;;;;;;;1.20;0.90;;;6.70;98.00;;;;;;5074112;28;20455;-73
2021/03/13 01:12:57;;;;;;;1.30;1.07;;;6.70;98.00;;;;;;5072051;28;20514;-73
2021/03/13 01:15:25;;;;;;;1.20;0.90;;;6.70;98.00;;;;;;5073662;28;21046;-73
2021/03/13 01:17:57;;;;;;;1.17;0.90;;;6.70;98.00;;;;;;5071768;28;20487;-73
2021/03/13 01:20:25;;;;;;;1.20;0.90;;;6.80;98.00;;;;;;5073700;28;20506;-73
2021/03/13 01:22:56;;;;;;;1.20;0.90;;;6.80;98.00;;;;;;5071727;28;20457;-72
2021/03/13 01:25:29;;;;;;;1.20;0.90;;;6.70;98.00;;;;;;5073808;28;20507;-73
2021/03/13 01:28:14;;;;;;;1.20;0.90;;;6.70;98.00;;;;;;5072246;28;20499;-73
2021/03/13 01:30:41;;;;;;;1.20;1.00;;;6.60;98.00;;;;;;5074442;28;20461;-73
2021/03/13 01:33:08;;;;;;;1.20;1.00;;;6.60;98.00;;;;;;5071930;28;20566;-73
2021/03/13 01:35:35;;;;;;;1.20;0.90;;;6.50;98.00;;;;;;5073728;28;20452;-73
2021/03/13 01:38:02;;;;;;;1.20;0.90;;;6.50;98.00;;;;;;5071865;28;20492;-73
2021/03/13 01:40:29;;;;;;;1.20;1.00;;;6.40;98.00;;;;;;5073030;28;20820;-73
2021/03/13 01:42:55;;;;;;;1.20;0.90;;;6.50;98.00;;;;;;5071614;28;20892;-73
2021/03/13 01:45:24;;;;;;;1.20;0.90;;;6.60;98.00;;;;;;5073438;28;20888;-73
2021/03/13 01:47:51;;;;;;;1.20;0.90;;;6.50;98.00;;;;;;5071299;28;20466;-73
2021/03/13 01:50:18;;;;;;;1.20;0.90;;;6.50;98.00;;;;;;5073282;28;20480;-73
2021/03/13 01:52:47;;;;;;;1.20;0.90;;;6.40;98.00;;;;;;5071321;28;20470;-73
2021/03/13 01:55:16;;;;;;;1.20;1.00;;;6.40;98.00;;;;;;5073245;28;20453;-73
2021/03/13 01:57:44;;;;;;;1.20;1.00;;;6.30;98.00;;;;;;5071919;28;20482;-73
2021/03/13 02:00:12;;;;;;;1.20;0.90;;;6.40;98.00;;;;;;5073077;28;20802;-72
2021/03/13 02:02:39;;;;;;;1.20;1.00;;;6.40;98.00;;;;;;5073039;28;20482;-73
2021/03/13 02:05:14;;;;;;;1.20;0.90;;;6.50;98.00;;;;;;5071112;28;20483;-73
2021/03/13 02:07:49;;;;;;;1.20;0.93;;;6.50;98.00;;;;;;5072074;28;20450;-73
2021/03/13 02:10:27;;;;;;;1.20;0.90;;;6.50;98.00;;;;;;5072786;28;20496;-73
2021/03/13 02:13:08;;;;;;;1.20;0.90;;;6.50;98.00;;;;;;5070878;28;20465;-73
2021/03/13 02:15:46;;;;;;;1.20;0.90;;;6.50;98.00;;;;;;5071953;28;20505;-73
2021/03/13 02:18:22;;;;;;;1.20;1.00;;;6.50;98.00;;;;;;5071537;28;20576;-73
2021/03/13 02:21:12;;;;;;;1.20;1.00;;;6.60;98.00;;;;;;5072594;28;20456;-73
2021/03/13 02:24:09;;;;;;;1.20;0.93;;;6.60;98.00;;;;;;5070388;28;20501;-73
2021/03/13 02:26:59;;;;;;;1.20;0.90;;;6.60;98.00;;;;;;5070789;28;20459;-73
2021/03/13 02:29:34;;;;;;;1.20;1.00;;;6.70;98.00;;;;;;5070280;28;20984;-73
2021/03/13 02:32:05;;;;;;;1.20;0.90;;;6.70;98.00;;;;;;5072275;28;20533;-73
2021/03/13 02:34:35;;;;;;;1.20;0.90;;;6.80;98.00;;;;;;5070285;28;20465;-73
2021/03/13 02:37:05;;;;;;;1.20;0.93;;;6.70;98.00;;;;;;5072199;28;20462;-73
2021/03/13 02:39:35;;;;;;;1.20;1.00;;;6.80;98.00;;;;;;5070534;28;20879;-73
2021/03/13 02:42:04;;;;;;;1.20;1.00;;;6.80;98.00;;;;;;5072036;28;20460;-73
2021/03/13 02:44:35;;;;;;;1.20;0.90;;;6.80;98.00;;;;;;5070171;28;20456;-73
2021/03/13 02:47:04;;;;;;;1.20;1.00;;;6.90;98.00;;;;;;5071773;28;20500;-73
2021/03/13 02:49:32;;;;;;;1.20;0.90;;;6.90;98.00;;;;;;5069969;28;20831;-73
2021/03/13 02:52:00;;;;;;;1.20;0.90;;;7.00;98.00;;;;;;5072042;28;20479;-73
2021/03/13 02:54:27;;;;;;;1.20;1.00;;;7.00;98.00;;;;;;5070039;28;20459;-73
2021/03/13 02:56:56;;;;;;;1.20;0.90;;;7.10;98.00;;;;;;5072161;28;20507;-73
2021/03/13 02:59:23;;;;;;;1.20;0.90;;;7.10;98.00;;;;;;5070149;28;20463;-73
2021/03/13 03:01:55;;;;;;;1.20;1.00;;;7.20;98.00;;;;;;5071656;28;20509;-72
2021/03/13 03:04:23;;;;;;;1.20;1.00;;;7.20;98.00;;;;;;5069921;28;20464;-72
2021/03/13 03:06:52;;;;;;;1.20;1.00;;;7.20;98.00;;;;;;5071660;28;20486;-73
2021/03/13 03:09:19;;;;;;;1.20;0.90;;;7.20;98.00;;;;;;5069717;28;20507;-73
2021/03/13 03:11:46;;;;;;;1.20;0.90;;;7.30;98.00;;;;;;5071694;28;20829;-73
2021/03/13 03:14:15;;;;;;;1.20;0.90;;;7.30;98.00;;;;;;5069581;28;20460;-73
2021/03/13 03:16:46;;;;;;;1.20;0.90;;;7.40;98.00;;;;;;5071455;28;20492;-73
2021/03/13 03:19:17;;;;;;;1.20;0.90;;;7.40;98.00;;;;;;5069420;28;20516;-73
2021/03/13 03:21:45;;;;;;;1.20;1.00;;;7.40;98.00;;;;;;5071405;28;20480;-73
2021/03/13 03:24:12;;;;;;;1.20;1.00;;;7.40;98.00;;;;;;5068170;28;20464;-73
2021/03/13 03:26:39;;;;;;;1.20;0.90;;;7.50;98.00;;;;;;5070393;28;20457;-73
2021/03/13 03:29:06;;;;;;;1.20;1.00;;;7.50;98.00;;;;;;5069356;28;20821;-73
2021/03/13 03:31:33;;;;;;;1.30;1.10;;;7.50;98.00;;;;;;5071188;28;20460;-73
2021/03/13 03:34:00;;;;;;;1.20;1.00;;;7.50;98.00;;;;;;5069319;28;20521;-73
2021/03/13 03:36:27;;;;;;;1.20;1.00;;;7.50;98.00;;;;;;5071057;28;20461;-73
2021/03/13 03:38:55;;;;;;;1.20;0.90;;;7.50;98.00;;;;;;5069133;28;21088;-73
2021/03/13 03:41:22;;;;;;;1.20;0.90;;;7.50;98.00;;;;;;5071168;28;20457;-73
2021/03/13 03:43:52;;;;;;;1.20;1.00;;;7.50;98.00;;;;;;5069250;28;20842;-73
2021/03/13 03:46:19;;;;;;;1.20;0.93;;;7.50;98.00;;;;;;5070890;28;20808;-73
2021/03/13 03:48:47;;;;;;;1.20;1.00;;;7.50;98.00;;;;;;5069166;28;20621;-73
2021/03/13 03:51:15;;;;;;;1.83;1.27;;;7.50;98.00;;;;;;5070868;28;20454;-73
2021/03/13 03:53:45;;;;;;;1.20;0.90;;;7.50;98.00;;;;;;5069068;28;20543;-73
2021/03/13 03:56:12;;;;;;;1.20;0.90;;;7.50;98.00;;;;;;5070773;28;20465;-73
2021/03/13 03:58:41;;;;;;;1.20;0.90;;;7.50;98.00;;;;;;5068767;28;20542;-73
2021/03/13 04:01:09;;;;;;;1.20;0.90;;;7.60;98.00;;;;;;5069599;28;20521;-73
2021/03/13 04:03:38;;;;;;;1.20;0.97;;;7.60;98.00;;;;;;5068948;28;20947;-73
2021/03/13 04:06:08;;;;;;;1.20;0.90;;;7.60;98.00;;;;;;5070853;28;20457;-73
2021/03/13 04:08:36;;;;;;;1.20;1.00;;;7.60;98.00;;;;;;5068823;28;20547;-73
2021/03/13 04:11:26;;;;;;;1.20;0.90;;;7.70;98.00;;;;;;5071101;28;20511;-73
2021/03/13 04:13:56;;;;;;;1.20;0.90;;;7.60;98.00;;;;;;5068726;28;20458;-73
2021/03/13 04:16:23;;;;;;;1.20;0.90;;;7.60;98.00;;;;;;5070831;28;20456;-73
2021/03/13 04:18:50;;;;;;;1.20;0.90;;;7.60;98.00;;;;;;5068639;28;20994;-73
2021/03/13 04:21:22;;;;;;;1.40;1.10;;;7.70;98.00;;;;;;5070481;28;20457;-73
2021/03/13 04:23:49;;;;;;;1.23;1.00;;;7.70;98.00;;;;;;5068582;28;20464;-73
2021/03/13 04:26:18;;;;;;;1.20;0.90;;;7.70;98.00;;;;;;5070559;28;20531;-73
2021/03/13 04:28:45;;;;;;;1.20;1.00;;;7.70;98.00;;;;;;5068390;28;20445;-73
2021/03/13 04:31:13;;;;;;;1.20;0.97;;;7.80;98.00;;;;;;5070414;28;20961;-73
2021/03/13 04:33:41;;;;;;;1.20;0.90;;;7.70;98.00;;;;;;5068496;28;20457;-73
2021/03/13 04:36:08;;;;;;;1.20;0.97;;;7.80;98.00;;;;;;5070574;28;20987;-73
2021/03/13 04:38:37;;;;;;;1.20;1.00;;;7.80;98.00;;;;;;5070391;28;20477;-73
2021/03/13 04:41:03;;;;;;;1.20;0.90;;;7.80;98.00;;;;;;5074587;28;20453;-73
2021/03/13 04:43:32;;;;;;;1.20;1.00;;;7.80;98.00;;;;;;5072289;28;20492;-73
2021/03/13 04:46:00;;;;;;;1.20;0.93;;;7.80;98.00;;;;;;5074285;28;21123;-73
2021/03/13 04:48:29;;;;;;;1.20;0.90;;;7.80;98.00;;;;;;5072293;28;20473;-73
2021/03/13 04:50:57;;;;;;;1.20;0.90;;;7.70;98.00;;;;;;5074161;28;20453;-73
2021/03/13 04:53:24;;;;;;;1.20;0.90;;;7.80;98.00;;;;;;5070818;28;20954;-73
2021/03/13 04:55:51;;;;;;;1.20;0.93;;;7.90;98.00;;;;;;5074034;28;20489;-73
2021/03/13 04:58:17;;;;;;;1.20;0.90;;;7.80;98.00;;;;;;5071960;28;20861;-73
2021/03/13 05:00:46;;;;;;;1.20;1.00;;;7.80;98.00;;;;;;5074258;28;20452;-73
2021/03/13 05:03:13;;;;;;;1.20;1.00;;;7.80;98.00;;;;;;5071749;28;20457;-73
2021/03/13 05:05:40;;;;;;;1.20;1.00;;;7.90;98.00;;;;;;5072759;28;20463;-73
2021/03/13 05:08:07;;;;;;;1.20;0.90;;;7.90;98.00;;;;;;5072125;28;20456;-73
2021/03/13 05:10:35;;;;;;;1.20;1.00;;;8.00;98.00;;;;;;5074753;28;20471;-73
2021/03/13 05:13:02;;;;;;;1.20;0.90;;;8.00;98.00;;;;;;5073198;28;20881;-73
2021/03/13 05:15:28;;;;;;;1.30;1.10;;;8.00;98.00;;;;;;5074687;28;20466;-73
2021/03/13 05:17:56;;;;;;;1.20;1.00;;;7.90;98.00;;;;;;5073943;28;20481;-70
2021/03/13 05:20:23;;;;;;;1.20;0.90;;;7.90;98.00;;;;;;5071281;28;20467;-70
2021/03/13 05:22:51;;;;;;;1.20;0.90;;;8.00;98.00;;;;;;5073581;28;20457;-70
2021/03/13 05:25:18;;;;;;;1.20;1.00;;;7.90;98.00;;;;;;5070529;28;20454;-71
2021/03/13 05:27:45;;;;;;;1.20;0.90;;;7.90;98.00;;;;;;5073622;28;20462;-70
2021/03/13 05:30:14;;;;;;;1.20;1.00;;;8.00;98.00;;;;;;5071842;28;20453;-70
2021/03/13 05:32:41;;;;;;;1.20;1.00;;;7.90;98.00;;;;;;5073831;28;20985;-70
2021/03/13 05:35:10;;;;;;;1.73;1.20;;;8.00;98.00;;;;;;5071705;28;20453;-70
2021/03/13 05:37:38;;;;;;;1.20;1.00;;;7.90;98.00;;;;;;5073427;28;20480;-70
2021/03/13 05:40:06;;;;;;;1.20;1.00;;;7.90;98.00;;;;;;5071389;28;20514;-70
2021/03/13 05:42:34;;;;;;;1.20;1.00;;;7.90;98.00;;;;;;5072774;28;20496;-70
2021/03/13 05:45:02;;;;;;;1.20;0.90;;;7.90;98.00;;;;;;5071366;28;20475;-70
2021/03/13 05:47:29;;;;;;;1.20;1.00;;;7.90;98.00;;;;;;5073034;28;20505;-70
2021/03/13 05:50:01;;;;;;;1.57;1.43;;;7.80;98.00;;;;;;5070061;28;20972;-70
2021/03/13 05:52:32;;;;;;;1.20;0.90;;;7.80;98.00;;;;;;5073091;28;20477;-70
2021/03/13 05:54:59;;;;;;;1.20;0.93;;;7.90;98.00;;;;;;5070950;28;20451;-70
2021/03/13 05:57:26;;;;;;;1.20;0.90;;;7.90;98.00;;;;;;5072835;28;20460;-70
2021/03/13 05:59:53;;;;;;;1.20;0.90;;;7.90;98.00;;;;;;5071058;28;20457;-70
2021/03/13 06:02:20;;;;;;;1.20;0.90;;;7.90;98.00;;;;;;5072710;28;20461;-70
2021/03/13 06:04:47;;;;;;;1.20;1.00;;;8.00;98.00;;;;;;5070855;28;20507;-70
2021/03/13 06:07:17;;;;;;;1.20;0.90;;;7.90;98.00;;;;;;5072695;28;20799;-70
2021/03/13 06:09:45;;;;;;;1.20;1.00;;;8.00;98.00;;;;;;5070658;28;20529;-71
2021/03/13 06:12:12;;;;;;;1.20;0.90;;;8.00;98.00;;;;;;5072659;28;20459;-71
2021/03/13 06:14:38;;;;;;;1.20;0.90;;;8.10;98.00;;;;;;5070681;28;20761;-70
2021/03/13 06:17:06;;;;;;;1.20;1.00;;;8.10;98.00;;;;;;5072604;28;20610;-70
2021/03/13 06:19:48;;;;;;;1.20;0.93;;;8.10;98.00;;;;;;5070411;28;20894;-70
2021/03/13 06:22:38;;;;;;;1.20;0.90;;;8.20;98.00;;;;;;5071083;28;20460;-70
2021/03/13 06:25:20;;;;;;;1.20;0.90;;;8.20;98.00;;;;;;5070391;28;20523;-71
2021/03/13 06:27:50;;;;;;;1.20;1.00;;;8.30;98.00;;;;;;5072311;28;20525;-70
2021/03/13 06:30:18;;;;;;;1.27;1.03;;;8.30;98.00;;;;;;5070538;28;20549;-70
2021/03/13 06:32:45;;;;;;;1.20;1.00;;;8.30;98.00;;;;;;5071920;28;20451;-70
2021/03/13 06:35:20;;;;;;;1.20;1.00;;;8.30;98.00;;;;;;5070237;28;20457;-70
2021/03/13 06:37:48;;;;;;;1.20;1.00;;;8.40;98.00;;;;;;5071998;28;20905;-70
2021/03/13 06:40:29;;;;;;;1.20;1.00;;;8.40;98.00;;;;;;5069935;28;20452;-70
2021/03/13 06:42:57;;;;;;;1.20;0.90;;;8.30;98.00;;;;;;5072109;28;20465;-71
2021/03/13 06:45:24;;;;;;;1.20;1.00;;;8.40;98.00;;;;;;5070336;28;20461;-70
2021/03/13 06:47:51;;;;;;;1.20;0.93;;;8.50;98.00;;;;;;5071807;28;20526;-70
2021/03/13 06:50:21;;;;;;;1.20;1.00;;;8.50;98.00;;;;;;5069480;28;20553;-70
2021/03/13 06:52:49;;;;;;;1.20;0.90;;;8.60;97.40;;;;;;5071914;28;20862;-69
2021/03/13 06:55:17;;;;;;;1.20;0.97;;;8.70;97.60;;;;;;5069522;28;20456;-69
2021/03/13 06:57:48;;;;;;;1.20;0.90;;;8.70;97.40;;;;;;5071665;28;20493;-70
2021/03/13 07:00:32;;;;;;;1.20;0.90;;;8.70;97.60;;;;;;5069575;28;20455;-70
2021/03/13 07:03:06;;;;;;;1.20;1.00;;;8.80;96.90;;;;;;5071502;28;20556;-70
2021/03/13 07:05:32;;;;;;;1.20;0.97;;;8.80;97.00;;;;;;5069532;28;20799;-69
2021/03/13 07:07:59;;;;;;;1.20;0.90;;;8.80;97.10;;;;;;5071499;28;20462;-70
2021/03/13 07:10:27;;;;;;;1.20;1.00;;;8.90;96.70;;;;;;5068053;28;20528;-70
2021/03/13 07:12:55;;;;;;;1.20;0.90;;;8.90;96.40;;;;;;5071400;28;20541;-70
2021/03/13 07:15:23;;;;;;;1.20;0.90;;;8.90;95.80;;;;;;5069099;28;20462;-70
2021/03/13 07:17:51;;;;;;;1.20;1.00;;;8.90;96.30;;;;;;5071209;28;20492;-70
2021/03/13 07:20:19;;;;;;;1.20;1.00;;;8.90;95.70;;;;;;5067824;28;20465;-70
2021/03/13 07:22:50;;;;;;;1.20;0.90;;;9.00;95.80;;;;;;5069986;28;20453;-70
2021/03/13 07:25:20;;;;;;;1.20;0.90;;;9.00;95.00;;;;;;5068728;28;20578;-70
2021/03/13 07:27:47;;;;;;;1.20;1.00;;;9.10;95.80;;;;;;5071073;28;20488;-70
2021/03/13 07:30:16;;;;;;;1.20;0.90;;;9.10;95.10;;;;;;5068900;28;20487;-70
2021/03/13 07:32:46;;;;;;;1.20;1.00;;;9.20;95.80;;;;;;5071061;28;20468;-70
2021/03/13 07:35:16;;;;;;;1.20;0.90;;;9.10;95.30;;;;;;5068999;28;20463;-68
2021/03/13 07:37:42;;;;;;;1.20;0.90;;;9.10;95.90;;;;;;5070745;28;20483;-69
2021/03/13 07:40:16;;;;;;;1.20;0.90;;;9.10;95.30;;;;;;5069103;28;20494;-69
2021/03/13 07:42:43;;;;;;;1.20;1.00;;;9.20;94.00;;;;;;5065279;28;20986;-69
2021/03/13 07:45:12;;;;;;;1.20;1.00;;;9.20;95.10;;;;;;5051997;28;20462;-68
2021/03/13 07:47:47;;;;;;;1.30;1.10;;;9.30;95.10;;;;;;5051177;28;20514;-69
2021/03/13 07:50:15;;;;;;;1.20;0.90;;;9.40;94.30;;;;;;5049620;28;20462;-69
2021/03/13 07:52:44;;;;;;;1.20;1.00;;;9.50;93.80;;;;;;5050789;28;20461;-69
2021/03/13 07:55:13;;;;;;;1.20;0.90;;;9.60;93.90;;;;;;5048890;28;20461;-70
2021/03/13 07:57:43;;;;;;;1.20;1.00;;;9.60;93.60;;;;;;5050807;28;20495;-70
2021/03/13 08:00:10;;;;;;;1.20;1.00;;;9.70;92.70;;;;;;5048343;28;20464;-70
2021/03/13 08:02:38;;;;;;;1.20;1.00;;;9.80;92.60;;;;;;5050753;28;20461;-70
2021/03/13 08:05:13;;;;;;;1.20;1.00;;;9.90;92.90;;;;;;5049094;28;20453;-71
2021/03/13 08:07:57;;;;;;;1.20;0.90;;;10.00;91.70;;;;;;5050917;28;20895;-71
2021/03/13 08:10:44;;;;;;;1.20;0.90;;;10.00;91.30;;;;;;5048013;28;20462;-70
2021/03/13 08:13:11;;;;;;;1.20;1.00;;;10.10;90.80;;;;;;5050334;28;20467;-70
2021/03/13 08:15:47;;;;;;;1.20;1.00;;;10.10;92.60;;;;;;5048583;28;20485;-70
2021/03/13 08:18:42;;;;;;;1.20;0.90;;;10.10;90.60;;;;;;5050765;28;20488;-70
2021/03/13 08:21:41;;;;;;;1.20;0.90;;;10.10;90.60;;;;;;5050610;28;20521;-70
2021/03/13 08:24:07;;;;;;;1.30;1.00;;;10.10;91.40;;;;;;5048811;28;20473;-70
2021/03/13 08:27:01;;;;;;;1.20;0.90;;;10.10;90.10;;;;;;5049246;28;20457;-70
2021/03/13 08:29:45;;;;;;;1.20;1.00;;;10.20;89.40;;;;;;5048481;28;20460;-71
2021/03/13 08:32:12;;;;;;;1.20;1.00;;;10.30;89.20;;;;;;5050486;28;20461;-70
2021/03/13 08:34:44;;;;;;;1.20;1.00;;;10.40;88.70;;;;;;5047515;28;20454;-71
2021/03/13 08:37:24;;;;;;;1.20;1.00;;;10.40;88.90;;;;;;5050208;28;20482;-71
2021/03/13 08:39:51;;;;;;;1.20;1.00;;;10.60;88.40;;;;;;5048575;28;20477;-70
2021/03/13 08:42:38;;;;;;;1.20;1.00;;;10.60;89.20;;;;;;5049134;28;21600;-71
2021/03/13 08:45:12;;;;;;;1.20;0.97;;;10.70;88.80;;;;;;5042410;28;20623;-70
2021/03/13 08:47:43;;;;;;;1.20;1.00;;;10.60;87.20;;;;;;5050046;28;20465;-70
2021/03/13 08:50:11;;;;;;;1.20;1.00;;;10.60;86.90;;;;;;5048464;28;20542;-70
2021/03/13 08:52:38;;;;;;;1.20;1.00;;;10.60;87.70;;;;;;5048877;28;20475;-70
2021/03/13 08:55:06;;;;;;;1.20;1.00;;;10.60;86.80;;;;;;5048406;28;20500;-70
2021/03/13 08:57:48;;;;;;;1.20;1.00;;;10.60;87.10;;;;;;5049986;28;20458;-71
2021/03/13 09:00:17;;;;;;;1.20;0.90;;;10.70;87.10;;;;;;5048265;28;20487;-70
2021/03/13 09:02:45;;;;;;;1.20;1.00;;;10.80;85.80;;;;;;5050083;28;20467;-70
2021/03/13 09:05:14;;;;;;;1.30;1.07;;;10.80;84.10;;;;;;5047419;28;20450;-70
2021/03/13 09:07:47;;;;;;;1.20;0.90;;;10.80;84.90;;;;;;5050192;28;20892;-70
2021/03/13 09:10:13;;;;;;;1.20;1.00;;;10.80;85.20;;;;;;5048311;28;20580;-70
2021/03/13 09:12:42;;;;;;;1.20;0.90;;;10.80;86.00;;;;;;5050132;28;20553;-70
2021/03/13 09:15:10;;;;;;;1.20;1.00;;;10.80;85.90;;;;;;5048327;28;20465;-70
2021/03/13 09:17:37;;;;;;;1.20;1.00;;;10.90;83.70;;;;;;5049887;28;20465;-70
2021/03/13 09:20:07;;;;;;;1.20;1.00;;;10.90;83.90;;;;;;5048202;28;20463;-70
2021/03/13 09:22:38;;;;;;;1.40;1.10;;;10.90;82.50;;;;;;5049910;28;20465;-70
2021/03/13 09:25:09;;;;;;;1.20;0.90;;;10.90;82.30;;;;;;5047454;28;20464;-70
2021/03/13 09:27:37;;;;;;;1.20;1.10;;;10.90;83.00;;;;;;5053634;28;20468;-70
2021/03/13 09:30:07;;;;;;;1.20;1.00;;;11.00;80.60;;;;;;5050641;28;20459;-70
2021/03/13 09:32:40;;;;;;;1.20;0.90;;;11.00;81.10;;;;;;5053613;28;20559;-70
2021/03/13 09:35:08;;;;;;;1.50;1.00;;;11.10;81.90;;;;;;5051733;28;20493;-70
2021/03/13 09:37:34;;;;;;;1.33;1.20;;;11.10;80.30;;;;;;5053229;28;20462;-70
2021/03/13 09:40:05;;;;;;;1.20;1.00;;;11.10;80.30;;;;;;5051538;28;20516;-70
2021/03/13 09:42:33;;;;;;;1.70;1.17;;;11.20;80.40;;;;;;5053188;28;20454;-70
2021/03/13 09:45:02;;;;;;;1.20;1.00;;;11.30;80.10;;;;;;5051549;28;20457;-70
2021/03/13 09:47:30;;;;;;;1.20;0.90;;;11.30;80.10;;;;;;5052881;28;20473;-70
2021/03/13 09:49:58;;;;;;;1.90;1.50;;;11.40;80.40;;;;;;5051332;28;20508;-70
2021/03/13 09:52:26;;;;;;;1.20;1.00;;;11.40;80.20;;;;;;5052959;28;20944;-71
2021/03/13 09:55:05;;;;;;;1.20;0.97;;;11.50;80.70;;;;;;5051125;28;20450;-71
2021/03/13 09:57:32;;;;;;;1.20;1.00;;;11.50;79.80;;;;;;5052804;28;20470;-70
2021/03/13 10:00:00;;;;;;;1.20;1.00;;;11.50;79.00;;;;;;5051011;28;20491;-71
2021/03/13 10:02:27;;;;;;;1.20;1.00;;;11.50;80.00;;;;;;5052863;28;20462;-71
2021/03/13 10:04:54;;;;;;;1.20;1.00;;;11.50;80.30;;;;;;5050507;28;20455;-70
2021/03/13 10:07:21;;;;;;;1.20;0.90;;;11.50;80.90;;;;;;5051983;28;20819;-71
2021/03/13 10:09:55;;;;;;;1.20;0.97;;;11.50;79.90;;;;;;5049418;28;20455;-71
2021/03/13 10:12:30;;;;;;;1.20;1.00;;;11.50;80.50;;;;;;5051989;28;20466;-71
2021/03/13 10:15:11;;;;;;;1.30;1.03;;;11.40;79.90;;;;;;5050091;28;20952;-71
2021/03/13 10:17:52;;;;;;;1.20;0.90;;;11.40;80.30;;;;;;5034471;28;20924;-71
2021/03/13 10:20:20;;;;;;;1.20;1.00;;;11.40;81.70;;;;;;5050291;28;20483;-71
2021/03/13 10:22:46;;;;;;;1.87;1.30;;;11.30;80.90;;;;;;5051132;28;20458;-71
2021/03/13 10:25:13;;;;;;;1.20;0.90;;;11.30;81.60;;;;;;5050617;28;20457;-72
2021/03/13 10:27:40;;;;;;;1.20;0.93;;;11.30;81.60;;;;;;5052167;28;20465;-72
2021/03/13 10:30:11;;;;;;;1.20;0.90;;;11.20;81.00;;;;;;5050768;28;20725;-72
2021/03/13 10:32:39;;;;;;;1.20;1.10;;;11.20;83.00;;;;;;5050834;28;20464;-72
2021/03/13 10:35:11;;;;;;;1.20;0.90;;;11.30;82.80;;;;;;5050473;28;20454;-72
2021/03/13 10:37:40;;;;;;;1.20;1.10;;;11.30;82.50;;;;;;5051601;28;20462;-72
2021/03/13 10:40:09;;;;;;;1.20;0.93;;;11.30;81.80;;;;;;5050499;28;20909;-72
2021/03/13 10:42:36;;;;;;;1.20;0.90;;;11.30;81.90;;;;;;5052099;28;20463;-72
2021/03/13 10:45:27;;;;;;;1.63;1.53;;;11.30;81.60;;;;;;5050654;28;20463;-72
2021/03/13 10:48:05;;;;;;;1.20;1.00;;;11.30;83.20;;;;;;5032614;28;20885;-72
2021/03/13 10:50:32;;;;;;;1.20;1.00;;;11.40;82.90;;;;;;5050139;28;20465;-72
2021/03/13 10:52:59;;;;;;;1.20;1.00;;;11.40;82.20;;;;;;5051898;28;20766;-72
2021/03/13 10:55:40;;;;;;;1.20;1.00;;;11.40;83.30;;;;;;5049357;28;20500;-71
2021/03/13 10:58:22;;;;;;;1.20;1.00;;;11.50;81.50;;;;;;5051950;28;21147;-72
2021/03/13 11:00:49;;;;;;;1.20;0.90;;;11.50;82.40;;;;;;5050710;28;20458;-73
2021/03/13 11:03:16;;;;;;;1.20;1.00;;;11.50;83.50;;;;;;5052330;28;20831;-73
2021/03/13 11:05:42;;;;;;;2.40;1.47;;;11.50;83.30;;;;;;5050700;28;20454;-73
2021/03/13 11:08:12;;;;;;;1.20;1.00;;;11.50;82.20;;;;;;5051535;28;20453;-73
2021/03/13 11:10:38;;;;;;;1.23;1.10;;;11.60;82.30;;;;;;5049591;28;20473;-73
2021/03/13 11:13:05;;;;;;;1.20;1.00;;;11.60;82.00;;;;;;5051632;28;20490;-72
2021/03/13 11:15:32;;;;;;;1.20;1.00;;;11.60;82.00;;;;;;5049521;28;20515;-72
2021/03/13 11:17:59;;;;;;;1.20;1.00;;;11.60;81.80;;;;;;5050521;28;20509;-72
2021/03/13 11:20:27;;;;;;;1.30;1.10;;;11.70;81.60;;;;;;5048867;28;20512;-72
2021/03/13 11:22:53;;;;;;;1.20;1.00;;;11.60;81.40;;;;;;5050765;28;20956;-74
2021/03/13 11:25:20;;;;;;;1.20;1.00;;;11.70;81.70;;;;;;5049090;28;20474;-73
2021/03/13 11:27:47;;;;;;;1.20;1.00;;;11.70;81.70;;;;;;5051493;28;20469;-73
2021/03/13 11:30:14;;;;;;;1.20;0.90;;;11.70;81.60;;;;;;5050722;28;20446;-73
2021/03/13 11:35:25;;;;;;;1.30;1.00;;;11.70;82.10;;;;;;5048481;28;20455;-72
2021/03/13 11:38:00;;;;;;;1.20;1.00;;;11.80;81.10;;;;;;5051713;28;20955;-73
2021/03/13 11:40:27;;;;;;;1.20;1.00;;;11.80;81.00;;;;;;5049179;28;20467;-73
2021/03/13 11:42:55;;;;;;;1.20;1.00;;;11.80;80.90;;;;;;5050981;28;20452;-72
2021/03/13 11:45:22;;;;;;;1.20;0.90;;;11.80;80.70;;;;;;5049437;28;20460;-73
2021/03/13 11:47:49;;;;;;;1.20;0.90;;;11.80;81.10;;;;;;5049502;28;20960;-73
2021/03/13 11:50:18;;;;;;;1.20;1.00;;;11.80;80.40;;;;;;5048414;28;20451;-72
2021/03/13 11:52:45;;;;;;;1.20;0.97;;;11.80;80.20;;;;;;5050515;28;20462;-72
2021/03/13 11:55:15;;;;;;;1.30;1.17;;;11.80;79.90;;;;;;5048375;28;20453;-72
2021/03/13 11:57:42;;;;;;;1.20;1.00;;;11.80;80.30;;;;;;5049325;28;20464;-72
2021/03/13 12:00:10;;;;;;;1.20;0.97;;;11.90;80.50;;;;;;5048728;28;20473;-72
2021/03/13 12:02:37;;;;;;;3.33;1.47;;;11.90;81.00;;;;;;5050124;28;20457;-72
2021/03/13 12:05:04;;;;;;;1.30;1.10;;;11.90;80.40;;;;;;5048074;28;20459;-72
2021/03/13 12:07:31;;;;;;;1.20;0.90;;;12.00;80.40;;;;;;5050395;28;20461;-72
2021/03/13 12:09:58;;;;;;;1.20;1.00;;;12.00;80.10;;;;;;5048032;28;20960;-72
2021/03/13 12:12:25;;;;;;;1.20;0.90;;;12.00;79.80;;;;;;5050016;28;20464;-72
2021/03/13 12:14:53;;;;;;;1.20;0.97;;;12.00;80.20;;;;;;5047576;28;20460;-72
2021/03/13 12:17:19;;;;;;;1.20;1.00;;;12.00;79.30;;;;;;5050505;28;20520;-72
2021/03/13 12:19:46;;;;;;;1.20;1.00;;;12.00;80.20;;;;;;5047772;28;20566;-72
2021/03/13 12:22:13;;;;;;;1.20;1.00;;;11.90;80.50;;;;;;5050043;28;20453;-72
2021/03/13 12:24:39;;;;;;;1.20;1.00;;;11.90;80.40;;;;;;5047689;28;20486;-73
2021/03/13 12:27:07;;;;;;;1.30;1.00;;;12.00;80.20;;;;;;5050222;28;20465;-72
2021/03/13 12:29:39;;;;;;;1.20;1.00;;;12.00;79.70;;;;;;5047777;28;20512;-72
2021/03/13 12:32:06;;;;;;;1.20;0.97;;;12.00;80.20;;;;;;5049919;28;20491;-72
2021/03/13 12:34:33;;;;;;;1.20;1.00;;;12.00;79.50;;;;;;5047624;28;20466;-72
2021/03/13 12:36:59;;;;;;;1.20;1.00;;;12.00;80.30;;;;;;5049371;28;20516;-72
2021/03/13 12:39:26;;;;;;;1.20;0.90;;;12.00;81.30;;;;;;5047929;28;20479;-72
2021/03/13 12:41:53;;;;;;;1.20;1.00;;;11.90;81.30;;;;;;5049870;28;20447;-72
2021/03/13 12:44:20;;;;;;;1.20;1.00;;;11.90;81.70;;;;;;5047363;28;20478;-72
2021/03/13 12:46:46;;;;;;;1.20;0.97;;;12.00;81.60;;;;;;5049565;28;20838;-72
2021/03/13 12:49:13;;;;;;;1.20;0.90;;;12.00;82.10;;;;;;5047072;28;20529;-72
2021/03/13 12:51:40;;;;;;;1.20;0.97;;;12.00;82.40;;;;;;5049830;28;20591;-72
2021/03/13 12:54:07;;;;;;;1.20;0.90;;;12.00;83.20;;;;;;5047587;28;20524;-72
2021/03/13 12:56:33;;;;;;;1.63;1.00;;;12.00;82.40;;;;;;5050225;28;20464;-72
2021/03/13 12:59:00;;;;;;;1.20;0.90;;;11.90;83.20;;;;;;5048232;28;20537;-74
2021/03/13 13:01:28;;;;;;;1.20;0.90;;;11.90;84.20;;;;;;5053426;28;20983;-71
2021/03/13 13:03:56;;;;;;;1.20;1.00;;;11.90;84.30;;;;;;5050185;28;20454;-74
2021/03/13 13:06:24;;;;;;;1.20;0.90;;;11.90;84.00;;;;;;5053246;28;20469;-71
2021/03/13 13:08:52;;;;;;;1.20;0.97;;;11.80;84.90;;;;;;5051259;28;20458;-73